createdAt,value
2022-09-11T00:00:52.164Z,1.84
2022-09-11T00:02:13.612Z,1.56
2022-09-11T00:03:35.347Z,1.84
2022-09-11T00:04:56.691Z,1.87
2022-09-11T00:06:28.807Z,1.88
2022-09-11T00:07:43.414Z,1.88
2022-09-11T00:09:05.219Z,1.89
2022-09-11T00:10:26.948Z,2.02
2022-09-11T00:11:48.226Z,2.04
2022-09-11T00:13:10.689Z,1.79
2022-09-11T00:14:32.047Z,1.92
2022-09-11T00:15:52.999Z,2.01
2022-09-11T00:17:14.037Z,1.99
2022-09-11T00:18:35.330Z,2.55
2022-09-11T00:19:56.476Z,2.26
2022-09-11T00:21:17.798Z,2.08
2022-09-11T00:22:38.883Z,2.23
2022-09-11T00:24:00.392Z,2.38
2022-09-11T00:25:23.349Z,2.40
2022-09-11T00:26:44.778Z,2.37
2022-09-11T00:28:06.170Z,2.32
2022-09-11T00:29:27.749Z,2.18
2022-09-11T00:31:03.104Z,2.49
2022-09-11T00:32:24.664Z,2.23
2022-09-11T00:33:45.743Z,2.27
2022-09-11T00:35:07.704Z,2.48
2022-09-11T00:36:29.945Z,2.59
2022-09-11T00:37:51.215Z,2.38
2022-09-11T00:39:12.664Z,2.58
2022-09-11T00:41:55.318Z,1.71
2022-09-11T00:43:17.032Z,2.67
2022-09-11T00:44:42.286Z,2.53
2022-09-11T00:46:04.577Z,2.31
2022-09-11T00:47:25.913Z,2.72
2022-09-11T00:48:47.462Z,2.39
2022-09-11T00:51:25.388Z,2.57
2022-09-11T00:54:00.219Z,2.38
2022-09-11T00:55:25.107Z,2.79
2022-09-11T00:56:46.980Z,2.72
2022-09-11T00:58:11.486Z,2.54
2022-09-11T00:59:32.767Z,2.58
2022-09-11T01:00:54.998Z,2.66
2022-09-11T01:02:17.650Z,2.61
2022-09-11T01:03:38.952Z,2.85
2022-09-11T01:05:00.024Z,2.77
2022-09-11T01:06:22.804Z,2.64
2022-09-11T01:07:44.767Z,2.73
2022-09-11T01:09:05.820Z,2.72
2022-09-11T01:10:47.645Z,2.87
2022-09-11T01:12:18.175Z,2.58
2022-09-11T01:15:01.193Z,2.68
2022-09-11T01:16:41.631Z,2.70
2022-09-11T01:18:21.448Z,2.71
2022-09-11T01:19:52.457Z,2.77
2022-09-11T01:21:41.968Z,2.60
2022-09-11T01:23:16.309Z,2.73
2022-09-11T01:24:55.809Z,3.02
2022-09-11T01:26:26.963Z,2.83
2022-09-11T01:30:17.855Z,2.23
2022-09-11T01:31:42.126Z,3.03
2022-09-11T01:33:16.542Z,2.99
2022-09-11T01:36:09.030Z,3.52
2022-09-11T01:37:34.482Z,3.16
2022-09-11T01:39:00.100Z,3.44
2022-09-11T01:40:31.608Z,3.60
2022-09-11T01:41:59.253Z,3.38
2022-09-11T01:43:29.140Z,3.48
2022-09-11T01:44:52.386Z,3.49
2022-09-11T01:46:15.930Z,3.38
2022-09-11T01:47:37.198Z,3.12
2022-09-11T01:49:22.081Z,3.49
2022-09-11T01:50:45.291Z,3.36
2022-09-11T01:52:08.232Z,3.31
2022-09-11T01:54:55.498Z,3.01
2022-09-11T01:56:21.540Z,3.17
2022-09-11T01:58:05.370Z,3.16
2022-09-11T01:59:29.004Z,3.42
2022-09-11T02:00:51.897Z,3.04
2022-09-11T02:04:47.739Z,3.28
2022-09-11T02:06:12.287Z,3.41
2022-09-11T02:07:37.716Z,3.48
2022-09-11T02:09:00.770Z,3.33
2022-09-11T02:10:26.881Z,3.50
2022-09-11T02:11:48.930Z,3.42
2022-09-11T02:13:14.682Z,2.91
2022-09-11T02:14:38.789Z,3.72
2022-09-11T02:17:40.764Z,3.54
2022-09-11T02:19:06.312Z,3.44
2022-09-11T02:20:28.404Z,3.72
2022-09-11T02:21:50.014Z,3.97
2022-09-11T02:23:11.368Z,3.69
2022-09-11T02:24:32.570Z,4.04
2022-09-11T02:25:53.780Z,3.61
2022-09-11T02:27:18.196Z,3.85
2022-09-11T02:28:39.174Z,4.25
2022-09-11T02:30:00.195Z,4.31
2022-09-11T02:31:21.523Z,4.14
2022-09-11T02:32:42.974Z,4.14
2022-09-11T02:34:04.175Z,4.14
2022-09-11T02:35:27.189Z,4.18
2022-09-11T02:36:51.970Z,4.26
2022-09-11T02:39:36.541Z,4.03
2022-09-11T02:42:30.436Z,4.06
2022-09-11T02:44:02.055Z,4.18
2022-09-11T02:46:00.744Z,4.42
2022-09-11T02:47:51.673Z,4.32
2022-09-11T02:49:19.255Z,4.21
2022-09-11T02:50:44.085Z,4.17
2022-09-11T02:52:24.425Z,4.54
2022-09-11T02:54:08.424Z,4.64
2022-09-11T02:56:52.131Z,4.04
2022-09-11T02:58:21.740Z,4.61
2022-09-11T02:59:55.400Z,4.69
2022-09-11T03:01:17.188Z,4.44
2022-09-11T03:02:40.237Z,4.24
2022-09-11T03:05:24.316Z,4.16
2022-09-11T03:06:45.731Z,4.83
2022-09-11T03:08:06.808Z,4.47
2022-09-11T03:09:28.530Z,4.48
2022-09-11T03:10:50.150Z,4.71
2022-09-11T03:12:11.420Z,4.66
2022-09-11T03:13:32.346Z,4.84
2022-09-11T03:14:53.372Z,4.06
2022-09-11T03:16:15.310Z,4.85
2022-09-11T03:17:36.864Z,4.87
2022-09-11T03:18:58.457Z,4.68
2022-09-11T03:20:24.629Z,4.76
2022-09-11T03:21:46.192Z,4.02
2022-09-11T03:23:07.424Z,4.63
2022-09-11T03:24:28.710Z,4.50
2022-09-11T03:25:50.003Z,4.93
2022-09-11T03:27:12.007Z,4.86
2022-09-11T03:28:33.565Z,4.78
2022-09-11T03:29:54.844Z,6.03
2022-09-11T03:31:16.702Z,8.34
2022-09-11T03:32:37.802Z,18.60
2022-09-11T03:33:59.186Z,14.56
2022-09-11T03:35:20.970Z,9.91
2022-09-11T03:36:42.621Z,6.60
2022-09-11T03:38:03.588Z,5.96
2022-09-11T03:39:25.061Z,4.54
2022-09-11T03:40:46.541Z,4.73
2022-09-11T03:42:08.648Z,4.53
2022-09-11T03:43:29.657Z,4.33
2022-09-11T03:44:51.040Z,4.81
2022-09-11T03:46:12.625Z,5.54
2022-09-11T03:47:34.204Z,4.82
2022-09-11T03:48:55.357Z,4.89
2022-09-11T03:50:17.042Z,5.07
2022-09-11T03:51:38.570Z,5.39
2022-09-11T03:52:59.929Z,5.03
2022-09-11T03:54:21.272Z,6.41
2022-09-11T03:55:44.060Z,5.21
2022-09-11T03:57:05.743Z,8.28
2022-09-11T03:58:27.432Z,5.72
2022-09-11T03:59:48.604Z,8.02
2022-09-11T04:01:10.924Z,6.26
2022-09-11T04:02:32.038Z,6.31
2022-09-11T04:03:53.036Z,5.48
2022-09-11T04:05:14.771Z,4.67
2022-09-11T04:06:36.628Z,5.29
2022-09-11T04:07:57.842Z,5.02
2022-09-11T04:09:19.050Z,5.14
2022-09-11T04:10:40.741Z,5.31
2022-09-11T04:12:03.798Z,4.82
2022-09-11T04:14:39.453Z,5.03
2022-09-11T04:16:02.859Z,5.01
2022-09-11T04:18:45.342Z,5.03
2022-09-11T04:20:07.822Z,5.49
2022-09-11T04:21:31.042Z,5.42
2022-09-11T04:22:52.336Z,5.11
2022-09-11T04:24:14.405Z,5.07
2022-09-11T04:25:35.763Z,5.35
2022-09-11T04:27:00.706Z,5.26
2022-09-11T04:28:20.813Z,5.52
2022-09-11T04:29:42.408Z,5.67
2022-09-11T04:31:04.190Z,5.60
2022-09-11T04:32:26.849Z,5.61
2022-09-11T04:33:48.046Z,4.09
2022-09-11T04:35:09.414Z,5.39
2022-09-11T04:36:31.065Z,5.83
2022-09-11T04:37:52.746Z,5.50
2022-09-11T04:39:14.394Z,4.76
2022-09-11T04:40:35.810Z,5.31
2022-09-11T04:41:57.849Z,5.27
2022-09-11T04:43:19.746Z,5.43
2022-09-11T04:44:40.758Z,5.08
2022-09-11T04:46:07.889Z,4.71
2022-09-11T04:47:29.456Z,4.95
2022-09-11T04:48:53.106Z,4.83
2022-09-11T04:50:16.147Z,4.40
2022-09-11T04:51:37.681Z,4.84
2022-09-11T04:52:59.157Z,4.83
2022-09-11T04:54:20.367Z,4.64
2022-09-11T04:55:41.737Z,4.72
2022-09-11T04:57:03.552Z,5.02
2022-09-11T04:58:24.923Z,4.33
2022-09-11T04:59:46.723Z,4.31
2022-09-11T05:02:20.984Z,4.43
2022-09-11T05:03:43.353Z,4.44
2022-09-11T05:05:06.058Z,4.29
2022-09-11T05:07:53.036Z,4.13
2022-09-11T05:09:15.099Z,4.27
2022-09-11T05:10:37.445Z,4.55
2022-09-11T05:11:58.569Z,4.48
2022-09-11T05:13:19.986Z,4.13
2022-09-11T05:14:41.625Z,4.41
2022-09-11T05:16:07.892Z,4.13
2022-09-11T05:17:30.897Z,4.26
2022-09-11T05:18:52.585Z,4.40
2022-09-11T05:20:15.560Z,4.39
2022-09-11T05:21:36.722Z,4.68
2022-09-11T05:22:58.139Z,4.38
2022-09-11T05:24:19.998Z,4.43
2022-09-11T05:25:43.038Z,4.64
2022-09-11T05:28:26.042Z,4.69
2022-09-11T05:29:47.403Z,4.61
2022-09-11T05:31:17.915Z,4.44
2022-09-11T05:32:39.423Z,4.79
2022-09-11T05:34:02.105Z,4.64
2022-09-11T05:35:30.368Z,4.72
2022-09-11T05:36:49.631Z,5.00
2022-09-11T05:38:11.108Z,4.77
2022-09-11T05:39:32.443Z,5.24
2022-09-11T05:40:53.604Z,5.19
2022-09-11T05:42:16.861Z,5.23
2022-09-11T05:43:38.559Z,4.98
2022-09-11T05:45:00.245Z,5.26
2022-09-11T05:46:23.249Z,5.26
2022-09-11T05:47:45.366Z,4.77
2022-09-11T05:49:06.806Z,5.11
2022-09-11T05:50:29.025Z,5.01
2022-09-11T05:51:50.322Z,4.98
2022-09-11T05:53:11.536Z,4.70
2022-09-11T05:54:32.708Z,5.47
2022-09-11T05:55:53.806Z,5.22
2022-09-11T05:57:16.084Z,5.30
2022-09-11T05:58:37.384Z,5.50
2022-09-11T06:00:00.690Z,5.38
2022-09-11T06:01:23.912Z,4.98
2022-09-11T06:04:10.280Z,5.54
2022-09-11T06:05:31.410Z,5.32
2022-09-11T06:06:53.094Z,4.73
2022-09-11T06:08:14.341Z,4.67
2022-09-11T06:09:35.313Z,4.76
2022-09-11T06:10:57.304Z,4.27
2022-09-11T06:12:18.861Z,4.63
2022-09-11T06:13:42.283Z,4.08
2022-09-11T06:16:26.152Z,3.89
2022-09-11T06:17:47.845Z,3.79
2022-09-11T06:19:09.297Z,3.64
2022-09-11T06:20:31.185Z,3.54
2022-09-11T06:21:53.086Z,3.41
2022-09-11T06:23:14.797Z,3.47
2022-09-11T06:24:36.168Z,3.03
2022-09-11T06:26:04.413Z,3.16
2022-09-11T06:27:25.497Z,3.52
2022-09-11T06:29:59.061Z,3.18
2022-09-11T06:31:22.321Z,2.74
2022-09-11T06:32:43.380Z,2.93
2022-09-11T06:34:05.689Z,2.49
2022-09-11T06:35:28.502Z,2.73
2022-09-11T06:36:52.273Z,2.55
2022-09-11T06:38:13.450Z,3.15
2022-09-11T06:39:36.847Z,3.16
2022-09-11T06:41:00.855Z,3.27
2022-09-11T06:42:22.206Z,2.91
2022-09-11T06:43:43.882Z,3.23
2022-09-11T06:46:17.948Z,2.11
2022-09-11T06:47:40.943Z,2.68
2022-09-11T06:49:02.532Z,2.47
2022-09-11T06:50:25.827Z,2.66
2022-09-11T06:51:47.316Z,2.42
2022-09-11T06:53:09.048Z,2.56
2022-09-11T06:54:31.270Z,2.54
2022-09-11T06:55:52.579Z,2.46
2022-09-11T06:57:13.662Z,2.25
2022-09-11T06:58:35.200Z,2.08
2022-09-11T06:59:56.262Z,2.15
2022-09-11T07:01:19.005Z,2.77
2022-09-11T07:02:40.203Z,2.74
2022-09-11T07:04:01.941Z,3.08
2022-09-11T07:05:25.906Z,2.63
2022-09-11T07:06:47.084Z,3.01
2022-09-11T07:08:08.184Z,2.75
2022-09-11T07:09:29.733Z,2.69
2022-09-11T07:10:51.240Z,2.74
2022-09-11T07:12:12.857Z,2.36
2022-09-11T07:13:37.306Z,2.86
2022-09-11T07:14:57.051Z,2.34
2022-09-11T07:16:19.551Z,2.40
2022-09-11T07:17:40.754Z,2.78
2022-09-11T07:19:02.201Z,2.48
2022-09-11T07:20:24.773Z,2.72
2022-09-11T07:21:45.898Z,2.99
2022-09-11T07:23:09.603Z,3.11
2022-09-11T07:24:31.242Z,3.00
2022-09-11T07:25:54.206Z,3.33
2022-09-11T07:27:15.580Z,2.81
2022-09-11T07:28:37.188Z,2.92
2022-09-11T07:29:58.508Z,3.26
2022-09-11T07:31:22.836Z,3.26
2022-09-11T07:34:08.540Z,3.33
2022-09-11T07:35:29.690Z,3.17
2022-09-11T07:36:53.159Z,3.28
2022-09-11T07:38:14.599Z,3.35
2022-09-11T07:39:35.841Z,4.20
2022-09-11T07:40:59.187Z,3.79
2022-09-11T07:42:20.331Z,3.95
2022-09-11T07:43:42.250Z,3.91
2022-09-11T07:45:06.324Z,4.26
2022-09-11T07:46:28.174Z,3.98
2022-09-11T07:49:05.048Z,4.09
2022-09-11T07:51:56.918Z,4.36
2022-09-11T07:53:18.703Z,4.32
2022-09-11T07:54:39.685Z,4.47
2022-09-11T07:56:02.440Z,4.10
2022-09-11T07:58:44.777Z,4.70
2022-09-11T08:00:06.942Z,4.62
2022-09-11T08:01:30.946Z,4.04
2022-09-11T08:02:52.033Z,3.97
2022-09-11T08:04:14.889Z,4.22
2022-09-11T08:05:36.697Z,4.06
2022-09-11T08:07:00.069Z,3.89
2022-09-11T08:08:21.621Z,4.14
2022-09-11T08:09:42.862Z,3.92
2022-09-11T08:12:19.615Z,3.36
2022-09-11T08:13:41.083Z,4.44
2022-09-11T08:15:02.994Z,4.03
2022-09-11T08:16:25.554Z,3.84
2022-09-11T08:17:47.347Z,3.42
2022-09-11T08:19:17.435Z,3.83
2022-09-11T08:20:38.940Z,3.46
2022-09-11T08:22:00.046Z,3.82
2022-09-11T08:23:21.727Z,3.56
2022-09-11T08:24:43.031Z,3.96
2022-09-11T08:26:07.310Z,4.06
2022-09-11T08:27:28.667Z,3.71
2022-09-11T08:28:50.820Z,3.82
2022-09-11T08:30:15.469Z,3.92
2022-09-11T08:31:37.066Z,4.24
2022-09-11T08:32:58.781Z,3.45
2022-09-11T08:34:20.440Z,3.71
2022-09-11T08:35:42.370Z,3.53
2022-09-11T08:37:04.338Z,3.39
2022-09-11T08:38:26.449Z,3.68
2022-09-11T08:39:47.693Z,3.94
2022-09-11T08:41:27.174Z,3.41
2022-09-11T08:42:48.806Z,3.59
2022-09-11T08:44:22.494Z,3.62
2022-09-11T08:45:43.568Z,4.12
2022-09-11T08:47:11.325Z,3.95
2022-09-11T08:48:48.384Z,3.60
2022-09-11T08:50:28.588Z,3.76
2022-09-11T08:51:51.172Z,4.33
2022-09-11T08:53:14.384Z,4.75
2022-09-11T08:56:04.816Z,5.20
2022-09-11T08:57:41.656Z,3.77
2022-09-11T08:59:21.639Z,3.51
2022-09-11T09:00:49.631Z,3.67
2022-09-11T09:02:24.015Z,3.66
2022-09-11T09:05:16.796Z,4.59
2022-09-11T09:06:48.864Z,3.42
2022-09-11T09:08:49.070Z,3.54
2022-09-11T09:10:42.984Z,3.69
2022-09-11T09:13:58.982Z,3.94
2022-09-11T09:15:40.948Z,3.76
2022-09-11T09:18:36.132Z,3.65
2022-09-11T09:20:11.020Z,3.31
2022-09-11T09:23:06.852Z,3.30
2022-09-11T09:24:31.298Z,3.41
2022-09-11T09:25:52.862Z,3.46
2022-09-11T09:27:17.341Z,3.51
2022-09-11T09:28:42.235Z,3.48
2022-09-11T09:30:05.745Z,3.51
2022-09-11T09:31:30.483Z,3.41
2022-09-11T09:33:09.275Z,3.31
2022-09-11T09:34:30.718Z,3.15
2022-09-11T09:35:54.872Z,2.19
2022-09-11T09:37:20.133Z,2.63
2022-09-11T09:38:41.121Z,2.87
2022-09-11T09:40:04.257Z,2.86
2022-09-11T09:42:00.223Z,2.62
2022-09-11T09:43:34.373Z,2.18
2022-09-11T09:45:05.825Z,3.85
2022-09-11T09:46:35.391Z,2.49
2022-09-11T09:47:58.167Z,2.62
2022-09-11T09:49:24.761Z,2.58
2022-09-11T09:50:46.449Z,2.47
2022-09-11T09:52:21.633Z,1.90
2022-09-11T09:55:02.154Z,1.37
2022-09-11T09:56:24.392Z,1.66
2022-09-11T09:57:45.467Z,1.92
2022-09-11T09:59:16.287Z,1.96
2022-09-11T10:00:38.758Z,1.88
2022-09-11T10:02:00.407Z,1.97
2022-09-11T10:03:25.240Z,2.28
2022-09-11T10:04:47.581Z,2.01
2022-09-11T10:06:12.520Z,1.80
2022-09-11T10:07:33.964Z,2.17
2022-09-11T10:08:58.137Z,2.36
2022-09-11T10:12:05.511Z,3.22
2022-09-11T10:13:34.513Z,3.33
2022-09-11T10:14:58.044Z,2.89
2022-09-11T10:16:24.915Z,3.18
2022-09-11T10:17:48.780Z,3.14
2022-09-11T10:19:09.932Z,2.91
2022-09-11T10:20:32.896Z,2.71
2022-09-11T10:21:54.097Z,2.75
2022-09-11T10:25:00.817Z,2.87
2022-09-11T10:26:33.312Z,2.69
2022-09-11T10:28:06.868Z,2.66
2022-09-11T10:29:28.378Z,2.65
2022-09-11T10:31:00.799Z,2.12
2022-09-11T10:32:22.524Z,2.04
2022-09-11T10:33:51.778Z,2.31
2022-09-11T10:35:17.845Z,2.17
2022-09-11T10:36:39.140Z,2.06
2022-09-11T10:38:17.019Z,11.14
2022-09-11T10:39:39.307Z,2.68
2022-09-11T10:41:13.695Z,2.31
2022-09-11T10:42:35.127Z,1.82
2022-09-11T10:43:58.265Z,1.85
2022-09-11T10:45:21.382Z,1.98
2022-09-11T10:46:43.481Z,2.04
2022-09-11T10:48:14.970Z,1.81
2022-09-11T10:49:36.852Z,2.34
2022-09-11T10:51:06.003Z,1.88
2022-09-11T10:52:29.223Z,1.71
2022-09-11T10:54:18.438Z,1.54
2022-09-11T10:55:43.323Z,1.49
2022-09-11T10:57:17.400Z,1.45
2022-09-11T10:58:41.770Z,1.50
2022-09-11T11:00:07.083Z,1.53
2022-09-11T11:01:28.527Z,7.24
2022-09-11T11:02:52.299Z,1.40
2022-09-11T11:04:13.447Z,1.40
2022-09-11T11:05:58.885Z,1.36
2022-09-11T11:07:53.334Z,1.56
2022-09-11T11:09:50.136Z,1.54
2022-09-11T11:11:18.102Z,1.54
2022-09-11T11:12:51.745Z,1.42
2022-09-11T11:14:36.004Z,1.76
2022-09-11T11:16:24.332Z,1.78
2022-09-11T11:17:52.476Z,1.72
2022-09-11T11:19:38.798Z,1.94
2022-09-11T11:21:22.171Z,1.72
2022-09-11T11:24:35.368Z,1.75
2022-09-11T11:26:09.972Z,1.99
2022-09-11T11:28:00.801Z,2.09
2022-09-11T11:29:44.627Z,1.96
2022-09-11T11:31:25.973Z,1.58
2022-09-11T11:33:10.676Z,1.51
2022-09-11T11:35:03.034Z,1.40
2022-09-11T11:36:40.800Z,1.31
2022-09-11T11:38:21.654Z,1.22
2022-09-11T11:39:58.809Z,1.34
2022-09-11T11:42:47.221Z,1.13
2022-09-11T11:44:15.737Z,1.25
2022-09-11T11:47:00.089Z,1.50
2022-09-11T11:48:27.458Z,1.21
2022-09-11T11:50:14.619Z,1.01
2022-09-11T11:51:42.474Z,1.00
2022-09-11T11:53:14.545Z,0.92
2022-09-11T11:54:40.762Z,1.06
2022-09-11T11:56:18.003Z,0.92
2022-09-11T11:57:43.972Z,1.10
2022-09-11T11:59:18.153Z,1.47
2022-09-11T12:00:45.032Z,1.43
2022-09-11T12:04:13.006Z,1.18
2022-09-11T12:05:38.813Z,1.26
2022-09-11T12:07:00.513Z,1.24
2022-09-11T12:09:47.957Z,1.89
2022-09-11T12:11:09.271Z,1.91
2022-09-11T12:12:35.129Z,2.11
2022-09-11T12:13:56.461Z,1.71
2022-09-11T12:15:25.674Z,1.49
2022-09-11T12:16:47.661Z,1.66
2022-09-11T12:19:33.722Z,1.87
2022-09-11T12:21:25.634Z,1.93
2022-09-11T12:22:47.758Z,1.46
2022-09-11T12:24:11.319Z,1.89
2022-09-11T12:25:36.134Z,1.28
2022-09-11T12:27:33.215Z,1.43
2022-09-11T12:31:13.832Z,1.07
2022-09-11T12:32:44.397Z,0.88
2022-09-11T12:34:09.540Z,0.84
2022-09-11T12:35:46.489Z,0.56
2022-09-11T12:37:16.306Z,0.66
2022-09-11T12:40:18.037Z,0.70
2022-09-11T12:41:41.821Z,0.85
2022-09-11T12:43:28.187Z,1.14
2022-09-11T12:44:53.174Z,0.81
2022-09-11T12:46:24.963Z,0.70
2022-09-11T12:47:46.434Z,0.80
2022-09-11T12:49:22.203Z,0.74
2022-09-11T12:50:36.120Z,0.92
2022-09-11T12:51:59.420Z,1.03
2022-09-11T12:54:39.787Z,2.09
2022-09-11T12:57:21.464Z,1.29
2022-09-11T12:58:44.616Z,1.30
2022-09-11T13:01:32.555Z,1.30
2022-09-11T13:02:54.810Z,0.88
2022-09-11T13:04:17.836Z,0.91
2022-09-11T13:05:41.704Z,0.83
2022-09-11T13:07:05.824Z,0.78
2022-09-11T13:08:29.415Z,0.76
2022-09-11T13:09:52.664Z,0.70
2022-09-11T13:11:37.060Z,0.76
2022-09-11T13:12:58.506Z,0.82
2022-09-11T13:14:32.211Z,0.63
2022-09-11T13:15:53.642Z,0.64
2022-09-11T13:17:26.605Z,0.76
2022-09-11T13:21:29.560Z,0.59
2022-09-11T13:22:56.094Z,0.67
2022-09-11T13:24:31.198Z,0.82
2022-09-11T13:25:54.447Z,0.79
2022-09-11T13:27:21.379Z,0.93
2022-09-11T13:30:04.351Z,0.75
2022-09-11T13:32:39.576Z,0.99
2022-09-11T13:34:03.603Z,0.97
2022-09-11T13:35:26.343Z,1.10
2022-09-11T13:36:47.667Z,1.27
2022-09-11T13:38:19.634Z,1.19
2022-09-11T13:39:42.182Z,1.09
2022-09-11T13:42:20.566Z,1.25
2022-09-11T13:44:59.109Z,1.46
2022-09-11T13:46:23.297Z,1.71
2022-09-11T13:47:44.889Z,1.66
2022-09-11T13:50:25.202Z,1.81
2022-09-11T13:51:46.984Z,1.97
2022-09-11T13:53:08.422Z,2.18
2022-09-11T13:54:34.427Z,1.99
2022-09-11T13:55:55.423Z,1.98
2022-09-11T13:57:24.105Z,1.94
2022-09-11T13:58:48.347Z,2.58
2022-09-11T14:00:16.001Z,2.28
2022-09-11T14:02:52.957Z,2.66
2022-09-11T14:04:14.570Z,2.46
2022-09-11T14:05:35.611Z,2.84
2022-09-11T14:06:57.019Z,2.65
2022-09-11T14:09:35.502Z,2.87
2022-09-11T14:10:59.331Z,3.13
2022-09-11T14:12:20.529Z,3.09
2022-09-11T14:13:48.502Z,3.10
2022-09-11T14:15:13.680Z,3.06
2022-09-11T14:16:37.090Z,2.93
2022-09-11T14:18:01.092Z,3.52
2022-09-11T14:20:43.329Z,3.31
2022-09-11T14:22:16.228Z,3.53
2022-09-11T14:24:58.567Z,3.24
2022-09-11T14:26:26.386Z,3.10
2022-09-11T14:27:49.360Z,3.39
2022-09-11T14:30:52.094Z,3.78
2022-09-11T14:32:39.783Z,4.04
2022-09-11T14:34:18.388Z,3.91
2022-09-11T14:35:40.221Z,3.59
2022-09-11T14:37:06.003Z,3.67
2022-09-11T14:38:27.300Z,3.57
2022-09-11T14:39:53.646Z,3.86
2022-09-11T14:41:17.790Z,3.88
2022-09-11T14:42:39.475Z,3.82
2022-09-11T14:45:25.923Z,3.38
2022-09-11T14:46:47.917Z,5.96
2022-09-11T14:48:13.442Z,3.86
2022-09-11T14:49:34.885Z,3.59
2022-09-11T14:50:56.702Z,3.88
2022-09-11T14:52:19.367Z,4.23
2022-09-11T14:53:41.045Z,4.24
2022-09-11T14:55:02.696Z,4.06
2022-09-11T14:56:26.189Z,3.69
2022-09-11T14:57:47.342Z,4.02
2022-09-11T14:59:08.845Z,3.97
2022-09-11T15:00:33.557Z,3.99
2022-09-11T15:01:56.798Z,4.09
2022-09-11T15:03:18.133Z,3.79
2022-09-11T15:04:39.333Z,3.57
2022-09-11T15:06:02.934Z,2.63
2022-09-11T15:07:24.545Z,2.69
2022-09-11T15:08:46.733Z,2.93
2022-09-11T15:10:09.692Z,2.37
2022-09-11T15:11:30.952Z,1.92
2022-09-11T15:12:53.692Z,2.43
2022-09-11T15:14:27.818Z,2.22
2022-09-11T15:15:39.204Z,2.12
2022-09-11T15:18:13.605Z,2.16
2022-09-11T15:19:35.142Z,2.03
2022-09-11T15:20:56.798Z,2.15
2022-09-11T15:22:19.556Z,1.98
2022-09-11T15:23:40.933Z,1.79
2022-09-11T15:25:03.026Z,2.02
2022-09-11T15:26:24.625Z,2.16
2022-09-11T15:27:48.724Z,1.86
2022-09-11T15:29:11.058Z,1.99
2022-09-11T15:30:37.859Z,1.67
2022-09-11T15:31:59.226Z,1.71
2022-09-11T15:33:20.790Z,1.31
2022-09-11T15:34:42.614Z,1.35
2022-09-11T15:36:04.418Z,1.31
2022-09-11T15:37:25.534Z,1.43
2022-09-11T15:38:51.894Z,1.44
2022-09-11T15:40:14.462Z,1.39
2022-09-11T15:41:36.832Z,1.66
2022-09-11T15:42:58.305Z,1.56
2022-09-11T15:44:20.913Z,1.42
2022-09-11T15:47:03.536Z,1.46
2022-09-11T15:48:26.507Z,1.43
2022-09-11T15:49:48.298Z,1.94
2022-09-11T15:51:13.571Z,1.61
2022-09-11T15:52:35.113Z,1.71
2022-09-11T15:53:59.629Z,1.63
2022-09-11T15:55:22.477Z,1.58
2022-09-11T15:56:44.225Z,1.75
2022-09-11T15:58:05.307Z,1.56
2022-09-11T15:59:26.387Z,1.58
2022-09-11T16:00:48.036Z,1.52
2022-09-11T16:02:10.750Z,1.49
2022-09-11T16:04:53.976Z,1.69
2022-09-11T16:06:18.657Z,1.48
2022-09-11T16:07:40.768Z,1.57
2022-09-11T16:09:03.461Z,1.90
2022-09-11T16:10:26.362Z,1.99
2022-09-11T16:11:48.145Z,1.54
2022-09-11T16:13:09.596Z,1.79
2022-09-11T16:14:35.794Z,1.70
2022-09-11T16:17:16.104Z,1.75
2022-09-11T16:18:38.419Z,2.01
2022-09-11T16:19:59.840Z,1.74
2022-09-11T16:21:21.367Z,1.86
2022-09-11T16:22:42.666Z,1.78
2022-09-11T16:24:04.250Z,1.81
2022-09-11T16:25:26.329Z,2.11
2022-09-11T16:26:47.551Z,2.17
2022-09-11T16:28:09.431Z,1.86
2022-09-11T16:29:59.039Z,1.63
2022-09-11T16:30:54.509Z,1.78
2022-09-11T16:32:15.964Z,1.86
2022-09-11T16:33:38.834Z,2.40
2022-09-11T16:34:59.992Z,1.98
2022-09-11T16:36:22.142Z,1.94
2022-09-11T16:37:43.498Z,1.75
2022-09-11T16:39:09.153Z,1.95
2022-09-11T16:40:31.341Z,2.38
2022-09-11T16:41:53.243Z,2.08
2022-09-11T16:43:19.481Z,1.71
2022-09-11T16:44:39.151Z,2.27
2022-09-11T16:46:00.851Z,2.13
2022-09-11T16:47:22.341Z,1.80
2022-09-11T16:48:43.915Z,1.94
2022-09-11T16:50:07.758Z,1.89
2022-09-11T16:51:28.698Z,1.88
2022-09-11T16:52:50.000Z,3.15
2022-09-11T16:54:11.367Z,2.72
2022-09-11T16:55:32.961Z,2.23
2022-09-11T16:56:54.922Z,1.61
2022-09-11T16:58:16.302Z,1.96
2022-09-11T17:00:53.962Z,1.94
2022-09-11T17:02:15.766Z,2.06
2022-09-11T17:03:41.240Z,2.18
2022-09-11T17:05:00.493Z,2.28
2022-09-11T17:06:24.524Z,1.79
2022-09-11T17:07:47.260Z,2.08
2022-09-11T17:09:08.761Z,2.13
2022-09-11T17:10:31.296Z,2.05
2022-09-11T17:11:52.936Z,2.03
2022-09-11T17:13:15.613Z,2.00
2022-09-11T17:14:37.116Z,2.07
2022-09-11T17:16:02.343Z,2.06
2022-09-11T17:17:23.553Z,2.31
2022-09-11T17:20:02.831Z,2.18
2022-09-11T17:21:28.102Z,2.08
2022-09-11T17:22:49.765Z,2.21
2022-09-11T17:24:11.091Z,1.98
2022-09-11T17:25:34.451Z,2.17
2022-09-11T17:26:55.708Z,2.37
2022-09-11T17:28:18.629Z,2.02
2022-09-11T17:29:44.235Z,2.16
2022-09-11T17:31:03.837Z,2.43
2022-09-11T17:32:28.618Z,2.23
2022-09-11T17:33:49.915Z,2.26
2022-09-11T17:35:11.406Z,2.87
2022-09-11T17:36:34.449Z,2.20
2022-09-11T17:37:56.757Z,2.27
2022-09-11T17:39:18.016Z,2.31
2022-09-11T17:40:39.441Z,2.26
2022-09-11T17:42:01.423Z,2.15
2022-09-11T17:43:23.782Z,1.98
2022-09-11T17:44:45.257Z,2.15
2022-09-11T17:46:09.209Z,2.14
2022-09-11T17:47:31.377Z,2.20
2022-09-11T17:48:52.822Z,2.33
2022-09-11T17:50:15.490Z,2.11
2022-09-11T17:51:36.539Z,2.16
2022-09-11T17:52:58.331Z,2.20
2022-09-11T17:54:19.408Z,2.17
2022-09-11T17:55:40.360Z,2.32
2022-09-11T17:57:01.500Z,2.28
2022-09-11T17:58:22.539Z,2.64
2022-09-11T18:01:18.477Z,2.35
2022-09-11T18:02:41.754Z,2.17
2022-09-11T18:04:03.133Z,2.32
2022-09-11T18:05:26.193Z,2.38
2022-09-11T18:06:47.861Z,1.67
2022-09-11T18:08:10.111Z,2.29
2022-09-11T18:09:31.256Z,2.15
2022-09-11T18:10:54.732Z,2.23
2022-09-11T18:13:37.108Z,2.07
2022-09-11T18:14:58.525Z,2.18
2022-09-11T18:16:22.610Z,1.99
2022-09-11T18:17:45.759Z,2.00
2022-09-11T18:19:06.828Z,1.85
2022-09-11T18:20:29.950Z,1.96
2022-09-11T18:21:52.135Z,1.89
2022-09-11T18:23:14.331Z,1.87
2022-09-11T18:24:36.952Z,2.19
2022-09-11T18:27:21.051Z,2.06
2022-09-11T18:28:43.184Z,2.00
2022-09-11T18:30:09.319Z,1.82
2022-09-11T18:31:32.311Z,2.11
2022-09-11T18:32:53.988Z,1.97
2022-09-11T18:35:29.971Z,1.27
2022-09-11T18:36:51.804Z,1.33
2022-09-11T18:38:12.883Z,1.11
2022-09-11T18:39:34.228Z,1.00
2022-09-11T18:40:55.792Z,0.80
2022-09-11T18:42:18.579Z,0.78
2022-09-11T18:43:40.190Z,0.82
2022-09-11T18:45:06.126Z,0.77
2022-09-11T18:46:28.028Z,0.63
2022-09-11T18:47:49.524Z,0.77
2022-09-11T18:49:12.462Z,0.83
2022-09-11T18:50:35.001Z,0.86
2022-09-11T18:51:56.122Z,0.92
2022-09-11T18:53:17.731Z,0.81
2022-09-11T18:54:39.148Z,0.68
2022-09-11T18:56:01.857Z,1.03
2022-09-11T18:57:24.118Z,0.64
2022-09-11T18:58:45.598Z,0.62
2022-09-11T19:00:08.516Z,0.66
2022-09-11T19:01:29.947Z,0.68
2022-09-11T19:02:53.876Z,0.83
2022-09-11T19:04:15.042Z,0.78
2022-09-11T19:05:36.153Z,0.79
2022-09-11T19:07:00.177Z,0.55
2022-09-11T19:08:23.738Z,0.68
2022-09-11T19:09:46.309Z,1.06
2022-09-11T19:11:12.746Z,0.93
2022-09-11T19:12:35.362Z,1.25
2022-09-11T19:14:02.545Z,1.43
2022-09-11T19:15:25.693Z,1.12
2022-09-11T19:16:49.575Z,0.92
2022-09-11T19:18:11.120Z,0.91
2022-09-11T19:19:32.429Z,0.94
2022-09-11T19:22:14.490Z,0.86
2022-09-11T19:23:36.867Z,0.93
2022-09-11T19:24:58.058Z,0.90
2022-09-11T19:26:22.867Z,1.09
2022-09-11T19:27:43.933Z,1.06
2022-09-11T19:29:06.786Z,1.01
2022-09-11T19:30:31.386Z,0.99
2022-09-11T19:31:52.674Z,1.03
2022-09-11T19:33:13.738Z,1.04
2022-09-11T19:34:38.718Z,1.02
2022-09-11T19:37:22.029Z,1.24
2022-09-11T19:38:44.410Z,1.07
2022-09-11T19:40:06.766Z,0.91
2022-09-11T19:42:50.824Z,0.96
2022-09-11T19:44:12.509Z,0.88
2022-09-11T19:45:33.564Z,0.99
2022-09-11T19:46:55.461Z,0.79
2022-09-11T19:48:16.986Z,0.90
2022-09-11T19:49:38.319Z,0.87
2022-09-11T19:51:00.407Z,0.80
2022-09-11T19:52:21.789Z,0.89
2022-09-11T19:53:43.682Z,0.80
2022-09-11T19:56:20.820Z,0.87
2022-09-11T19:57:42.026Z,0.78
2022-09-11T19:59:05.520Z,0.96
2022-09-11T20:00:28.410Z,0.90
2022-09-11T20:01:49.838Z,0.91
2022-09-11T20:03:13.173Z,0.90
2022-09-11T20:04:35.148Z,0.86
2022-09-11T20:05:56.647Z,1.01
2022-09-11T20:07:18.031Z,0.99
2022-09-11T20:08:43.662Z,0.81
2022-09-11T20:10:05.536Z,1.03
2022-09-11T20:11:28.707Z,0.97
2022-09-11T20:12:49.808Z,1.00
2022-09-11T20:14:11.417Z,0.97
2022-09-11T20:15:38.087Z,1.08
2022-09-11T20:17:00.533Z,1.09
2022-09-11T20:18:23.026Z,1.32
2022-09-11T20:19:45.187Z,1.16
2022-09-11T20:21:09.277Z,1.22
2022-09-11T20:22:30.781Z,1.22
2022-09-11T20:23:54.689Z,1.43
2022-09-11T20:25:15.904Z,1.52
2022-09-11T20:27:55.273Z,1.32
2022-09-11T20:29:16.693Z,1.37